Vremea mâine în Buhuși - Romania

Vrei sa afli care e starea vremii acum in Bacau - Romania? Dorim sa iti furnizam starea vremii pentru Bacau - Romania. Starea vremii Bacau - Romania pentru astazi.

Vremea mâine în Buhuși

Temperatura minimă:
8.8 °C

Temperatura maximă:
23.5 °C

Mâine va fi: Senin
Precipitații: 0 %
Umiditate: 63%
Viteza maximă vânt mâine:
21.2 km/h

Evoluția vremii in Buhuși pe ore mâine

Ora: 03:00
Temperatura: °C
Sansa de precipitatii: %
Ora Descriere Temp Se simte Precipitatii Umiditate Vant
00:00Senin11.7°11°0%75%S 8.3 KM/H
01:00Senin11.2°10.5°0%77%S 7.6 KM/H
02:00Senin10.6°10°0%78%SSW 6.8 KM/H
03:00Senin10.3°9.7°0%79%SSW 6.5 KM/H
04:00Senin9.8°9.3°0%80%S 6.1 KM/H
05:00Senin9.3°8.5°0%82%SSE 6.8 KM/H
06:00Senin8.8°7.6°0%85%SSE 7.9 KM/H
07:00Senin9.9°0%83%SSE 7.6 KM/H
08:00Senin14.1°13.7°0%74%SSE 8.6 KM/H
09:00Senin16.5°16.5°0%66%SSE 10.1 KM/H
10:00Senin18.7°18.7°0%60%SSE 11.9 KM/H
11:00Senin20.5°20.5°0%54%SSE 14.8 KM/H
12:00Senin22.1°24.3°0%46%SSE 16.9 KM/H
13:00Senin23.1°24.4°0%40%SSE 18 KM/H
14:00Senin23.5°24.4°0%38%SSE 19.4 KM/H
15:00Senin23.5°24.5°0%38%SE 21.2 KM/H
16:00Senin23.3°24.4°0%39%SSE 21.2 KM/H
17:00Senin22.8°24.4°0%42%SSE 21.2 KM/H
18:00Senin22°22°0%49%SSE 19.8 KM/H
19:00Senin19.9°19.9°0%56%SSE 17.3 KM/H
20:00Senin15.8°15.8°0%67%SSE 12.2 KM/H
21:00Senin13.9°13.2°0%70%SE 11.5 KM/H
22:00Senin14.1°12.7°0%70%SSE 18 KM/H
23:00Senin13.7°12°0%70%SSE 20.5 KM/H




tutorials